sensor_id;sensor_type;location;lat;lon;timestamp;P1;durP1;ratioP1;P2;durP2;ratioP2
70233;SDS011;57622;42.630;23.378;2022-08-19T00:01:19;9.50;;;4.85;;
70233;SDS011;57622;42.630;23.378;2022-08-19T00:03:44;8.57;;;4.85;;
70233;SDS011;57622;42.630;23.378;2022-08-19T00:06:10;8.63;;;4.80;;
70233;SDS011;57622;42.630;23.378;2022-08-19T00:08:35;8.25;;;4.70;;
70233;SDS011;57622;42.630;23.378;2022-08-19T00:11:01;7.68;;;4.57;;
70233;SDS011;57622;42.630;23.378;2022-08-19T00:13:27;10.07;;;4.60;;
70233;SDS011;57622;42.630;23.378;2022-08-19T00:15:54;7.63;;;4.53;;
70233;SDS011;57622;42.630;23.378;2022-08-19T00:18:20;7.53;;;4.40;;
70233;SDS011;57622;42.630;23.378;2022-08-19T00:20:45;12.40;;;5.30;;
70233;SDS011;57622;42.630;23.378;2022-08-19T00:23:11;8.55;;;4.47;;
70233;SDS011;57622;42.630;23.378;2022-08-19T00:25:36;8.02;;;4.60;;
70233;SDS011;57622;42.630;23.378;2022-08-19T00:28:02;9.13;;;4.45;;
70233;SDS011;57622;42.630;23.378;2022-08-19T00:30:29;9.57;;;4.60;;
70233;SDS011;57622;42.630;23.378;2022-08-19T00:32:55;9.00;;;4.88;;
70233;SDS011;57622;42.630;23.378;2022-08-19T00:35:22;9.02;;;5.00;;
70233;SDS011;57622;42.630;23.378;2022-08-19T00:37:48;10.40;;;4.57;;
70233;SDS011;57622;42.630;23.378;2022-08-19T00:40:14;9.07;;;4.90;;
70233;SDS011;57622;42.630;23.378;2022-08-19T00:42:44;8.50;;;4.95;;
70233;SDS011;57622;42.630;23.378;2022-08-19T00:45:20;8.95;;;4.63;;
70233;SDS011;57622;42.630;23.378;2022-08-19T00:47:48;8.27;;;4.78;;
70233;SDS011;57622;42.630;23.378;2022-08-19T00:50:14;10.07;;;4.78;;
70233;SDS011;57622;42.630;23.378;2022-08-19T00:52:43;9.75;;;4.40;;
70233;SDS011;57622;42.630;23.378;2022-08-19T00:55:24;7.53;;;4.43;;
70233;SDS011;57622;42.630;23.378;2022-08-19T00:57:53;10.55;;;5.00;;
70233;SDS011;57622;42.630;23.378;2022-08-19T01:00:23;8.60;;;4.72;;
70233;SDS011;57622;42.630;23.378;2022-08-19T01:02:53;8.65;;;4.60;;
70233;SDS011;57622;42.630;23.378;2022-08-19T01:05:20;8.57;;;5.00;;
70233;SDS011;57622;42.630;23.378;2022-08-19T01:07:48;8.32;;;4.80;;
70233;SDS011;57622;42.630;23.378;2022-08-19T01:10:16;8.00;;;4.50;;
70233;SDS011;57622;42.630;23.378;2022-08-19T01:12:45;8.35;;;5.00;;
70233;SDS011;57622;42.630;23.378;2022-08-19T01:15:13;11.98;;;4.38;;
70233;SDS011;57622;42.630;23.378;2022-08-19T01:17:41;8.93;;;4.60;;
70233;SDS011;57622;42.630;23.378;2022-08-19T01:20:15;7.68;;;4.47;;
70233;SDS011;57622;42.630;23.378;2022-08-19T01:22:46;8.98;;;4.50;;
70233;SDS011;57622;42.630;23.378;2022-08-19T01:25:18;8.00;;;4.43;;
70233;SDS011;57622;42.630;23.378;2022-08-19T01:27:48;10.27;;;5.22;;
70233;SDS011;57622;42.630;23.378;2022-08-19T01:30:16;9.75;;;4.88;;
70233;SDS011;57622;42.630;23.378;2022-08-19T01:32:45;7.80;;;4.45;;
70233;SDS011;57622;42.630;23.378;2022-08-19T01:35:11;8.50;;;4.63;;
70233;SDS011;57622;42.630;23.378;2022-08-19T01:37:49;8.32;;;4.85;;
70233;SDS011;57622;42.630;23.378;2022-08-19T01:40:26;11.55;;;5.03;;
70233;SDS011;57622;42.630;23.378;2022-08-19T01:42:54;8.32;;;4.90;;
70233;SDS011;57622;42.630;23.378;2022-08-19T01:45:21;10.68;;;5.32;;
70233;SDS011;57622;42.630;23.378;2022-08-19T01:47:47;8.20;;;4.82;;
70233;SDS011;57622;42.630;23.378;2022-08-19T01:50:13;11.27;;;4.90;;
70233;SDS011;57622;42.630;23.378;2022-08-19T01:52:40;8.90;;;4.90;;
70233;SDS011;57622;42.630;23.378;2022-08-19T01:55:08;9.50;;;5.00;;
70233;SDS011;57622;42.630;23.378;2022-08-19T01:57:39;9.23;;;5.47;;
70233;SDS011;57622;42.630;23.378;2022-08-19T02:02:35;7.93;;;4.78;;
70233;SDS011;57622;42.630;23.378;2022-08-19T02:05:00;10.13;;;5.03;;
70233;SDS011;57622;42.630;23.378;2022-08-19T02:07:26;10.80;;;5.03;;
70233;SDS011;57622;42.630;23.378;2022-08-19T02:09:53;8.05;;;4.70;;
70233;SDS011;57622;42.630;23.378;2022-08-19T02:12:20;9.68;;;4.70;;
70233;SDS011;57622;42.630;23.378;2022-08-19T02:14:45;7.65;;;4.63;;
70233;SDS011;57622;42.630;23.378;2022-08-19T02:17:11;10.48;;;4.90;;
70233;SDS011;57622;42.630;23.378;2022-08-19T02:19:37;10.05;;;4.80;;
70233;SDS011;57622;42.630;23.378;2022-08-19T02:22:02;8.70;;;4.78;;
70233;SDS011;57622;42.630;23.378;2022-08-19T02:24:28;8.07;;;4.90;;
70233;SDS011;57622;42.630;23.378;2022-08-19T02:26:53;9.35;;;4.60;;
70233;SDS011;57622;42.630;23.378;2022-08-19T02:29:19;9.85;;;5.00;;
70233;SDS011;57622;42.630;23.378;2022-08-19T02:31:45;8.52;;;4.80;;
70233;SDS011;57622;42.630;23.378;2022-08-19T02:34:10;8.88;;;5.00;;
70233;SDS011;57622;42.630;23.378;2022-08-19T02:36:36;10.40;;;5.10;;
70233;SDS011;57622;42.630;23.378;2022-08-19T02:39:01;9.23;;;4.70;;
70233;SDS011;57622;42.630;23.378;2022-08-19T02:41:28;10.23;;;4.97;;
70233;SDS011;57622;42.630;23.378;2022-08-19T02:43:56;10.93;;;4.75;;
70233;SDS011;57622;42.630;23.378;2022-08-19T02:46:25;9.95;;;4.65;;
70233;SDS011;57622;42.630;23.378;2022-08-19T02:48:55;8.18;;;4.60;;
70233;SDS011;57622;42.630;23.378;2022-08-19T02:51:26;10.20;;;5.20;;
70233;SDS011;57622;42.630;23.378;2022-08-19T02:53:54;12.65;;;5.00;;
70233;SDS011;57622;42.630;23.378;2022-08-19T02:56:21;8.77;;;4.70;;
70233;SDS011;57622;42.630;23.378;2022-08-19T02:58:49;9.80;;;4.75;;
70233;SDS011;57622;42.630;23.378;2022-08-19T03:03:51;9.50;;;4.95;;
70233;SDS011;57622;42.630;23.378;2022-08-19T03:06:16;8.65;;;5.03;;
70233;SDS011;57622;42.630;23.378;2022-08-19T03:08:43;10.68;;;5.10;;
70233;SDS011;57622;42.630;23.378;2022-08-19T03:14:03;11.50;;;5.57;;
70233;SDS011;57622;42.630;23.378;2022-08-19T03:16:30;8.77;;;5.10;;
70233;SDS011;57622;42.630;23.378;2022-08-19T03:18:57;10.68;;;5.25;;
70233;SDS011;57622;42.630;23.378;2022-08-19T03:21:26;8.80;;;5.00;;
70233;SDS011;57622;42.630;23.378;2022-08-19T03:23:54;8.90;;;5.07;;
70233;SDS011;57622;42.630;23.378;2022-08-19T03:26:20;9.07;;;4.85;;
70233;SDS011;57622;42.630;23.378;2022-08-19T03:28:46;8.00;;;4.88;;
70233;SDS011;57622;42.630;23.378;2022-08-19T03:31:14;10.53;;;5.10;;
70233;SDS011;57622;42.630;23.378;2022-08-19T03:33:42;7.82;;;5.05;;
70233;SDS011;57622;42.630;23.378;2022-08-19T03:38:41;10.30;;;5.13;;
70233;SDS011;57622;42.630;23.378;2022-08-19T03:41:14;9.35;;;4.85;;
70233;SDS011;57622;42.630;23.378;2022-08-19T03:43:42;9.32;;;4.97;;
70233;SDS011;57622;42.630;23.378;2022-08-19T03:46:10;9.27;;;5.22;;
70233;SDS011;57622;42.630;23.378;2022-08-19T03:48:38;12.93;;;5.22;;
70233;SDS011;57622;42.630;23.378;2022-08-19T03:51:05;8.57;;;4.88;;
70233;SDS011;57622;42.630;23.378;2022-08-19T03:53:32;8.98;;;5.22;;
70233;SDS011;57622;42.630;23.378;2022-08-19T03:55:59;11.43;;;5.07;;
70233;SDS011;57622;42.630;23.378;2022-08-19T03:58:25;8.93;;;4.90;;
70233;SDS011;57622;42.630;23.378;2022-08-19T04:00:53;11.13;;;5.30;;
70233;SDS011;57622;42.630;23.378;2022-08-19T04:03:20;8.60;;;5.15;;
70233;SDS011;57622;42.630;23.378;2022-08-19T04:05:46;10.15;;;4.80;;
70233;SDS011;57622;42.630;23.378;2022-08-19T04:08:12;10.32;;;5.18;;
70233;SDS011;57622;42.630;23.378;2022-08-19T04:10:46;9.52;;;5.13;;
70233;SDS011;57622;42.630;23.378;2022-08-19T04:13:13;11.43;;;5.07;;
70233;SDS011;57622;42.630;23.378;2022-08-19T04:15:40;10.60;;;5.25;;
70233;SDS011;57622;42.630;23.378;2022-08-19T04:18:10;8.52;;;5.05;;
70233;SDS011;57622;42.630;23.378;2022-08-19T04:20:43;8.95;;;5.13;;
70233;SDS011;57622;42.630;23.378;2022-08-19T04:23:10;9.02;;;4.95;;
70233;SDS011;57622;42.630;23.378;2022-08-19T04:25:37;9.27;;;4.93;;
70233;SDS011;57622;42.630;23.378;2022-08-19T04:28:07;9.35;;;5.20;;
70233;SDS011;57622;42.630;23.378;2022-08-19T04:30:44;11.75;;;5.57;;
70233;SDS011;57622;42.630;23.378;2022-08-19T04:33:15;8.85;;;5.30;;
70233;SDS011;57622;42.630;23.378;2022-08-19T04:35:44;11.85;;;6.03;;
70233;SDS011;57622;42.630;23.378;2022-08-19T04:38:12;10.77;;;5.97;;
70233;SDS011;57622;42.630;23.378;2022-08-19T04:40:45;11.38;;;5.35;;
70233;SDS011;57622;42.630;23.378;2022-08-19T04:43:31;8.88;;;5.68;;
70233;SDS011;57622;42.630;23.378;2022-08-19T04:45:58;11.10;;;5.72;;
70233;SDS011;57622;42.630;23.378;2022-08-19T04:48:31;16.58;;;6.20;;
70233;SDS011;57622;42.630;23.378;2022-08-19T04:50:57;10.25;;;5.78;;
70233;SDS011;57622;42.630;23.378;2022-08-19T04:53:24;11.48;;;5.70;;
70233;SDS011;57622;42.630;23.378;2022-08-19T04:55:55;11.73;;;6.00;;
70233;SDS011;57622;42.630;23.378;2022-08-19T04:58:22;10.48;;;5.65;;
70233;SDS011;57622;42.630;23.378;2022-08-19T05:00:48;14.65;;;5.90;;
70233;SDS011;57622;42.630;23.378;2022-08-19T05:03:14;11.68;;;5.80;;
70233;SDS011;57622;42.630;23.378;2022-08-19T05:05:42;13.95;;;6.50;;
70233;SDS011;57622;42.630;23.378;2022-08-19T05:08:08;11.90;;;6.30;;
70233;SDS011;57622;42.630;23.378;2022-08-19T05:10:35;10.68;;;5.50;;
70233;SDS011;57622;42.630;23.378;2022-08-19T05:13:01;11.82;;;6.65;;
70233;SDS011;57622;42.630;23.378;2022-08-19T05:15:27;12.45;;;6.10;;
70233;SDS011;57622;42.630;23.378;2022-08-19T05:17:52;11.70;;;6.10;;
70233;SDS011;57622;42.630;23.378;2022-08-19T05:20:37;10.45;;;6.35;;
70233;SDS011;57622;42.630;23.378;2022-08-19T05:23:22;11.52;;;5.80;;
70233;SDS011;57622;42.630;23.378;2022-08-19T05:25:47;10.38;;;5.70;;
70233;SDS011;57622;42.630;23.378;2022-08-19T05:28:13;10.82;;;5.32;;
70233;SDS011;57622;42.630;23.378;2022-08-19T05:30:38;10.40;;;6.05;;
70233;SDS011;57622;42.630;23.378;2022-08-19T05:33:07;9.75;;;5.70;;
70233;SDS011;57622;42.630;23.378;2022-08-19T05:35:35;10.70;;;5.88;;
70233;SDS011;57622;42.630;23.378;2022-08-19T05:38:02;14.05;;;6.43;;
70233;SDS011;57622;42.630;23.378;2022-08-19T05:40:28;12.32;;;6.38;;
70233;SDS011;57622;42.630;23.378;2022-08-19T05:42:53;13.93;;;6.70;;
70233;SDS011;57622;42.630;23.378;2022-08-19T05:45:19;10.07;;;5.57;;
70233;SDS011;57622;42.630;23.378;2022-08-19T05:47:46;10.88;;;5.53;;
70233;SDS011;57622;42.630;23.378;2022-08-19T05:50:12;10.23;;;5.55;;
70233;SDS011;57622;42.630;23.378;2022-08-19T05:52:38;12.98;;;5.85;;
70233;SDS011;57622;42.630;23.378;2022-08-19T05:55:03;12.50;;;5.70;;
70233;SDS011;57622;42.630;23.378;2022-08-19T05:57:30;12.50;;;6.05;;
70233;SDS011;57622;42.630;23.378;2022-08-19T05:59:56;12.40;;;6.22;;
70233;SDS011;57622;42.630;23.378;2022-08-19T06:02:25;10.18;;;5.55;;
70233;SDS011;57622;42.630;23.378;2022-08-19T06:04:52;11.65;;;5.57;;
70233;SDS011;57622;42.630;23.378;2022-08-19T06:07:17;13.63;;;5.53;;
70233;SDS011;57622;42.630;23.378;2022-08-19T06:09:44;11.57;;;5.07;;
70233;SDS011;57622;42.630;23.378;2022-08-19T06:12:09;8.70;;;4.90;;
70233;SDS011;57622;42.630;23.378;2022-08-19T06:14:35;11.10;;;5.60;;
70233;SDS011;57622;42.630;23.378;2022-08-19T06:17:01;12.20;;;5.57;;
70233;SDS011;57622;42.630;23.378;2022-08-19T06:19:28;11.73;;;6.10;;
70233;SDS011;57622;42.630;23.378;2022-08-19T06:21:55;10.50;;;5.65;;
70233;SDS011;57622;42.630;23.378;2022-08-19T06:24:24;10.25;;;5.32;;
70233;SDS011;57622;42.630;23.378;2022-08-19T06:26:51;9.75;;;5.47;;
70233;SDS011;57622;42.630;23.378;2022-08-19T06:29:19;10.83;;;5.17;;
70233;SDS011;57622;42.630;23.378;2022-08-19T06:31:50;11.70;;;5.43;;
70233;SDS011;57622;42.630;23.378;2022-08-19T06:34:17;8.77;;;4.88;;
70233;SDS011;57622;42.630;23.378;2022-08-19T06:36:45;12.32;;;6.00;;
70233;SDS011;57622;42.630;23.378;2022-08-19T06:39:16;10.30;;;5.18;;
70233;SDS011;57622;42.630;23.378;2022-08-19T06:41:45;11.88;;;5.45;;
70233;SDS011;57622;42.630;23.378;2022-08-19T06:44:13;9.82;;;5.45;;
70233;SDS011;57622;42.630;23.378;2022-08-19T06:46:39;10.57;;;5.20;;
70233;SDS011;57622;42.630;23.378;2022-08-19T06:49:06;11.60;;;5.50;;
70233;SDS011;57622;42.630;23.378;2022-08-19T06:51:35;11.05;;;5.60;;
70233;SDS011;57622;42.630;23.378;2022-08-19T06:54:00;11.32;;;5.47;;
70233;SDS011;57622;42.630;23.378;2022-08-19T06:56:28;12.77;;;5.68;;
70233;SDS011;57622;42.630;23.378;2022-08-19T06:58:57;14.02;;;5.50;;
70233;SDS011;57622;42.630;23.378;2022-08-19T07:01:23;9.70;;;5.25;;
70233;SDS011;57622;42.630;23.378;2022-08-19T07:03:48;12.05;;;5.50;;
70233;SDS011;57622;42.630;23.378;2022-08-19T07:06:15;14.07;;;5.70;;
70233;SDS011;57622;42.630;23.378;2022-08-19T07:11:09;10.05;;;5.55;;
70233;SDS011;57622;42.630;23.378;2022-08-19T07:16:07;13.85;;;5.43;;
70233;SDS011;57622;42.630;23.378;2022-08-19T07:18:34;9.02;;;5.13;;
70233;SDS011;57622;42.630;23.378;2022-08-19T07:21:09;12.32;;;5.65;;
70233;SDS011;57622;42.630;23.378;2022-08-19T07:23:37;10.30;;;5.25;;
70233;SDS011;57622;42.630;23.378;2022-08-19T07:26:11;12.13;;;5.50;;
70233;SDS011;57622;42.630;23.378;2022-08-19T07:28:39;13.10;;;5.45;;
70233;SDS011;57622;42.630;23.378;2022-08-19T07:31:06;13.02;;;5.75;;
70233;SDS011;57622;42.630;23.378;2022-08-19T07:33:32;10.35;;;5.43;;
70233;SDS011;57622;42.630;23.378;2022-08-19T07:36:01;20.58;;;6.28;;
70233;SDS011;57622;42.630;23.378;2022-08-19T07:38:31;11.30;;;5.32;;
70233;SDS011;57622;42.630;23.378;2022-08-19T07:40:58;13.48;;;5.38;;
70233;SDS011;57622;42.630;23.378;2022-08-19T07:43:23;9.23;;;5.35;;
70233;SDS011;57622;42.630;23.378;2022-08-19T07:45:53;14.05;;;5.18;;
70233;SDS011;57622;42.630;23.378;2022-08-19T07:48:25;10.55;;;5.13;;
70233;SDS011;57622;42.630;23.378;2022-08-19T07:50:53;12.50;;;5.70;;
70233;SDS011;57622;42.630;23.378;2022-08-19T07:53:20;12.18;;;5.10;;
70233;SDS011;57622;42.630;23.378;2022-08-19T07:55:47;11.40;;;5.35;;
70233;SDS011;57622;42.630;23.378;2022-08-19T07:58:13;11.98;;;5.53;;
70233;SDS011;57622;42.630;23.378;2022-08-19T08:00:41;11.80;;;5.20;;
70233;SDS011;57622;42.630;23.378;2022-08-19T08:03:07;9.98;;;5.05;;
70233;SDS011;57622;42.630;23.378;2022-08-19T08:05:34;11.70;;;5.13;;
70233;SDS011;57622;42.630;23.378;2022-08-19T08:08:18;9.10;;;5.00;;
70233;SDS011;57622;42.630;23.378;2022-08-19T08:11:02;10.80;;;4.70;;
70233;SDS011;57622;42.630;23.378;2022-08-19T08:13:29;10.70;;;5.32;;
70233;SDS011;57622;42.630;23.378;2022-08-19T08:15:55;10.85;;;5.38;;
70233;SDS011;57622;42.630;23.378;2022-08-19T08:18:22;10.20;;;5.28;;
70233;SDS011;57622;42.630;23.378;2022-08-19T08:20:49;13.07;;;5.35;;
70233;SDS011;57622;42.630;23.378;2022-08-19T08:23:14;14.15;;;5.40;;
70233;SDS011;57622;42.630;23.378;2022-08-19T08:25:54;10.63;;;5.18;;
70233;SDS011;57622;42.630;23.378;2022-08-19T08:28:21;13.63;;;5.80;;
70233;SDS011;57622;42.630;23.378;2022-08-19T08:30:48;10.30;;;5.55;;
70233;SDS011;57622;42.630;23.378;2022-08-19T08:33:17;13.95;;;5.68;;
70233;SDS011;57622;42.630;23.378;2022-08-19T08:35:44;13.32;;;5.90;;
70233;SDS011;57622;42.630;23.378;2022-08-19T08:38:10;11.50;;;5.50;;
70233;SDS011;57622;42.630;23.378;2022-08-19T08:40:44;12.35;;;4.80;;
70233;SDS011;57622;42.630;23.378;2022-08-19T08:46:00;11.82;;;4.60;;
70233;SDS011;57622;42.630;23.378;2022-08-19T08:51:05;10.70;;;4.50;;
70233;SDS011;57622;42.630;23.378;2022-08-19T08:53:36;11.48;;;4.80;;
70233;SDS011;57622;42.630;23.378;2022-08-19T08:56:03;11.07;;;4.75;;
70233;SDS011;57622;42.630;23.378;2022-08-19T09:01:44;12.88;;;4.70;;
70233;SDS011;57622;42.630;23.378;2022-08-19T09:04:09;11.63;;;4.57;;
70233;SDS011;57622;42.630;23.378;2022-08-19T09:07:01;8.75;;;4.60;;
70233;SDS011;57622;42.630;23.378;2022-08-19T09:09:35;10.30;;;4.28;;
70233;SDS011;57622;42.630;23.378;2022-08-19T09:15:03;11.65;;;4.28;;
70233;SDS011;57622;42.630;23.378;2022-08-19T09:17:31;10.30;;;4.15;;
70233;SDS011;57622;42.630;23.378;2022-08-19T09:19:59;9.63;;;4.13;;
70233;SDS011;57622;42.630;23.378;2022-08-19T09:22:32;8.60;;;4.18;;
70233;SDS011;57622;42.630;23.378;2022-08-19T09:24:57;8.30;;;3.75;;
70233;SDS011;57622;42.630;23.378;2022-08-19T09:27:24;9.70;;;3.70;;
70233;SDS011;57622;42.630;23.378;2022-08-19T09:29:51;8.82;;;3.53;;
70233;SDS011;57622;42.630;23.378;2022-08-19T09:32:18;7.88;;;3.70;;
70233;SDS011;57622;42.630;23.378;2022-08-19T09:34:44;7.90;;;3.58;;
70233;SDS011;57622;42.630;23.378;2022-08-19T09:37:10;10.18;;;3.47;;
70233;SDS011;57622;42.630;23.378;2022-08-19T09:39:36;8.40;;;3.60;;
70233;SDS011;57622;42.630;23.378;2022-08-19T09:42:02;7.95;;;3.40;;
70233;SDS011;57622;42.630;23.378;2022-08-19T09:44:29;9.55;;;3.70;;
70233;SDS011;57622;42.630;23.378;2022-08-19T09:46:55;10.07;;;3.80;;
70233;SDS011;57622;42.630;23.378;2022-08-19T09:49:21;9.15;;;4.05;;
70233;SDS011;57622;42.630;23.378;2022-08-19T09:51:50;8.50;;;3.85;;
70233;SDS011;57622;42.630;23.378;2022-08-19T09:54:17;8.75;;;3.90;;
70233;SDS011;57622;42.630;23.378;2022-08-19T09:56:43;8.57;;;3.90;;
70233;SDS011;57622;42.630;23.378;2022-08-19T09:59:09;8.77;;;3.80;;
70233;SDS011;57622;42.630;23.378;2022-08-19T10:01:36;9.93;;;4.10;;
70233;SDS011;57622;42.630;23.378;2022-08-19T10:04:02;10.18;;;3.92;;
70233;SDS011;57622;42.630;23.378;2022-08-19T10:06:33;9.20;;;3.60;;
70233;SDS011;57622;42.630;23.378;2022-08-19T10:09:00;7.72;;;3.80;;
70233;SDS011;57622;42.630;23.378;2022-08-19T10:11:26;7.90;;;3.78;;
70233;SDS011;57622;42.630;23.378;2022-08-19T10:13:52;8.05;;;3.75;;
70233;SDS011;57622;42.630;23.378;2022-08-19T10:16:19;9.40;;;3.53;;
70233;SDS011;57622;42.630;23.378;2022-08-19T10:18:47;9.20;;;4.00;;
70233;SDS011;57622;42.630;23.378;2022-08-19T10:23:51;10.43;;;3.80;;
70233;SDS011;57622;42.630;23.378;2022-08-19T10:28:48;9.02;;;4.13;;
70233;SDS011;57622;42.630;23.378;2022-08-19T10:31:19;8.77;;;3.95;;
70233;SDS011;57622;42.630;23.378;2022-08-19T10:33:48;8.32;;;3.80;;
70233;SDS011;57622;42.630;23.378;2022-08-19T10:36:15;9.38;;;3.90;;
70233;SDS011;57622;42.630;23.378;2022-08-19T10:38:43;9.32;;;4.25;;
70233;SDS011;57622;42.630;23.378;2022-08-19T10:41:33;8.07;;;3.75;;
70233;SDS011;57622;42.630;23.378;2022-08-19T10:43:58;7.55;;;3.60;;
70233;SDS011;57622;42.630;23.378;2022-08-19T10:46:26;7.32;;;3.67;;
70233;SDS011;57622;42.630;23.378;2022-08-19T10:48:53;8.43;;;4.13;;
70233;SDS011;57622;42.630;23.378;2022-08-19T10:51:19;11.05;;;4.30;;
70233;SDS011;57622;42.630;23.378;2022-08-19T10:54:04;10.00;;;4.57;;
70233;SDS011;57622;42.630;23.378;2022-08-19T10:56:30;11.35;;;4.40;;
70233;SDS011;57622;42.630;23.378;2022-08-19T10:59:15;7.82;;;3.88;;
70233;SDS011;57622;42.630;23.378;2022-08-19T11:01:43;9.35;;;4.60;;
70233;SDS011;57622;42.630;23.378;2022-08-19T11:04:09;10.90;;;4.38;;
70233;SDS011;57622;42.630;23.378;2022-08-19T11:06:36;11.15;;;3.88;;
70233;SDS011;57622;42.630;23.378;2022-08-19T11:09:03;10.83;;;4.20;;
70233;SDS011;57622;42.630;23.378;2022-08-19T11:11:30;7.88;;;4.03;;
70233;SDS011;57622;42.630;23.378;2022-08-19T11:13:57;10.30;;;4.40;;
70233;SDS011;57622;42.630;23.378;2022-08-19T11:16:24;10.18;;;4.10;;
70233;SDS011;57622;42.630;23.378;2022-08-19T11:18:54;9.82;;;4.38;;
70233;SDS011;57622;42.630;23.378;2022-08-19T11:21:28;12.02;;;5.38;;
70233;SDS011;57622;42.630;23.378;2022-08-19T11:23:58;37.35;;;14.55;;
70233;SDS011;57622;42.630;23.378;2022-08-19T11:26:29;18.27;;;7.38;;
70233;SDS011;57622;42.630;23.378;2022-08-19T11:28:56;19.02;;;7.85;;
70233;SDS011;57622;42.630;23.378;2022-08-19T11:31:23;9.63;;;4.50;;
70233;SDS011;57622;42.630;23.378;2022-08-19T11:33:51;7.53;;;4.15;;
70233;SDS011;57622;42.630;23.378;2022-08-19T11:36:19;9.80;;;4.20;;
70233;SDS011;57622;42.630;23.378;2022-08-19T11:38:46;8.77;;;4.35;;
70233;SDS011;57622;42.630;23.378;2022-08-19T11:41:13;10.38;;;4.85;;
70233;SDS011;57622;42.630;23.378;2022-08-19T11:43:40;9.77;;;4.35;;
70233;SDS011;57622;42.630;23.378;2022-08-19T11:46:07;10.60;;;5.15;;
70233;SDS011;57622;42.630;23.378;2022-08-19T11:48:35;12.43;;;4.70;;
70233;SDS011;57622;42.630;23.378;2022-08-19T11:51:02;10.60;;;4.50;;
70233;SDS011;57622;42.630;23.378;2022-08-19T11:53:31;10.93;;;4.30;;
70233;SDS011;57622;42.630;23.378;2022-08-19T11:55:57;8.77;;;4.47;;
70233;SDS011;57622;42.630;23.378;2022-08-19T11:58:23;12.75;;;4.68;;
70233;SDS011;57622;42.630;23.378;2022-08-19T12:00:49;9.15;;;4.47;;
70233;SDS011;57622;42.630;23.378;2022-08-19T12:03:16;9.93;;;4.65;;
70233;SDS011;57622;42.630;23.378;2022-08-19T12:05:42;10.32;;;4.25;;
70233;SDS011;57622;42.630;23.378;2022-08-19T12:08:07;8.27;;;4.25;;
70233;SDS011;57622;42.630;23.378;2022-08-19T12:10:33;9.48;;;4.60;;
70233;SDS011;57622;42.630;23.378;2022-08-19T12:13:00;8.82;;;4.47;;
70233;SDS011;57622;42.630;23.378;2022-08-19T12:15:26;11.80;;;4.38;;
70233;SDS011;57622;42.630;23.378;2022-08-19T12:17:54;8.30;;;4.10;;
70233;SDS011;57622;42.630;23.378;2022-08-19T12:20:21;12.27;;;4.47;;
70233;SDS011;57622;42.630;23.378;2022-08-19T12:22:48;9.90;;;4.50;;
70233;SDS011;57622;42.630;23.378;2022-08-19T12:25:13;10.50;;;4.07;;
70233;SDS011;57622;42.630;23.378;2022-08-19T12:27:39;11.27;;;4.50;;
70233;SDS011;57622;42.630;23.378;2022-08-19T12:30:05;10.65;;;4.35;;
70233;SDS011;57622;42.630;23.378;2022-08-19T12:32:32;9.75;;;4.35;;
70233;SDS011;57622;42.630;23.378;2022-08-19T12:34:58;10.18;;;4.15;;
70233;SDS011;57622;42.630;23.378;2022-08-19T12:37:24;12.45;;;3.97;;
70233;SDS011;57622;42.630;23.378;2022-08-19T12:39:49;8.50;;;4.15;;
70233;SDS011;57622;42.630;23.378;2022-08-19T12:42:15;9.23;;;4.40;;
70233;SDS011;57622;42.630;23.378;2022-08-19T12:44:41;8.50;;;4.40;;
70233;SDS011;57622;42.630;23.378;2022-08-19T12:47:08;10.70;;;4.60;;
70233;SDS011;57622;42.630;23.378;2022-08-19T12:49:35;11.37;;;4.53;;
70233;SDS011;57622;42.630;23.378;2022-08-19T12:52:05;9.00;;;4.70;;
70233;SDS011;57622;42.630;23.378;2022-08-19T12:54:33;9.85;;;4.72;;
70233;SDS011;57622;42.630;23.378;2022-08-19T12:56:59;9.55;;;4.18;;
70233;SDS011;57622;42.630;23.378;2022-08-19T12:59:25;9.57;;;4.68;;
70233;SDS011;57622;42.630;23.378;2022-08-19T13:01:51;10.35;;;4.50;;
70233;SDS011;57622;42.630;23.378;2022-08-19T13:04:17;7.65;;;4.57;;
70233;SDS011;57622;42.630;23.378;2022-08-19T13:06:42;11.00;;;4.75;;
70233;SDS011;57622;42.630;23.378;2022-08-19T13:09:08;9.68;;;4.68;;
70233;SDS011;57622;42.630;23.378;2022-08-19T13:11:34;10.65;;;4.72;;
70233;SDS011;57622;42.630;23.378;2022-08-19T13:14:00;9.70;;;4.35;;
70233;SDS011;57622;42.630;23.378;2022-08-19T13:16:28;8.98;;;4.50;;
70233;SDS011;57622;42.630;23.378;2022-08-19T13:18:54;10.88;;;4.82;;
70233;SDS011;57622;42.630;23.378;2022-08-19T13:21:21;10.67;;;4.43;;
70233;SDS011;57622;42.630;23.378;2022-08-19T13:23:49;9.80;;;4.55;;
70233;SDS011;57622;42.630;23.378;2022-08-19T13:26:16;9.45;;;4.53;;
70233;SDS011;57622;42.630;23.378;2022-08-19T13:28:42;10.30;;;4.53;;
70233;SDS011;57622;42.630;23.378;2022-08-19T13:31:29;9.27;;;4.75;;
70233;SDS011;57622;42.630;23.378;2022-08-19T13:34:16;9.10;;;4.60;;
70233;SDS011;57622;42.630;23.378;2022-08-19T13:36:44;9.93;;;4.35;;
70233;SDS011;57622;42.630;23.378;2022-08-19T13:39:10;10.25;;;5.22;;
70233;SDS011;57622;42.630;23.378;2022-08-19T13:41:36;11.23;;;4.75;;
70233;SDS011;57622;42.630;23.378;2022-08-19T13:44:06;11.57;;;5.28;;
70233;SDS011;57622;42.630;23.378;2022-08-19T13:46:31;11.27;;;4.70;;
70233;SDS011;57622;42.630;23.378;2022-08-19T13:48:57;11.45;;;4.55;;
70233;SDS011;57622;42.630;23.378;2022-08-19T13:51:22;10.73;;;4.70;;
70233;SDS011;57622;42.630;23.378;2022-08-19T13:53:48;10.43;;;4.78;;
70233;SDS011;57622;42.630;23.378;2022-08-19T13:56:16;12.68;;;4.60;;
70233;SDS011;57622;42.630;23.378;2022-08-19T13:58:44;11.25;;;4.57;;
70233;SDS011;57622;42.630;23.378;2022-08-19T14:01:10;9.25;;;4.50;;
70233;SDS011;57622;42.630;23.378;2022-08-19T14:03:36;9.82;;;4.88;;
70233;SDS011;57622;42.630;23.378;2022-08-19T14:06:02;9.63;;;4.88;;
70233;SDS011;57622;42.630;23.378;2022-08-19T14:08:28;10.32;;;5.07;;
70233;SDS011;57622;42.630;23.378;2022-08-19T14:10:55;11.80;;;4.55;;
70233;SDS011;57622;42.630;23.378;2022-08-19T14:13:21;9.10;;;4.82;;
70233;SDS011;57622;42.630;23.378;2022-08-19T14:15:48;12.70;;;4.57;;
70233;SDS011;57622;42.630;23.378;2022-08-19T14:18:15;10.98;;;4.45;;
70233;SDS011;57622;42.630;23.378;2022-08-19T14:20:41;10.07;;;4.87;;
70233;SDS011;57622;42.630;23.378;2022-08-19T14:23:08;11.65;;;5.05;;
70233;SDS011;57622;42.630;23.378;2022-08-19T14:25:33;11.43;;;4.65;;
70233;SDS011;57622;42.630;23.378;2022-08-19T14:27:59;9.18;;;4.90;;
70233;SDS011;57622;42.630;23.378;2022-08-19T14:30:35;9.20;;;4.60;;
70233;SDS011;57622;42.630;23.378;2022-08-19T14:33:03;11.07;;;4.97;;
70233;SDS011;57622;42.630;23.378;2022-08-19T14:35:30;8.48;;;4.75;;
70233;SDS011;57622;42.630;23.378;2022-08-19T14:38:02;10.70;;;4.68;;
70233;SDS011;57622;42.630;23.378;2022-08-19T14:40:31;13.48;;;5.07;;
70233;SDS011;57622;42.630;23.378;2022-08-19T14:42:58;9.93;;;5.13;;
70233;SDS011;57622;42.630;23.378;2022-08-19T14:45:33;10.38;;;4.85;;
70233;SDS011;57622;42.630;23.378;2022-08-19T14:48:01;9.23;;;5.00;;
70233;SDS011;57622;42.630;23.378;2022-08-19T14:50:26;11.13;;;5.03;;
70233;SDS011;57622;42.630;23.378;2022-08-19T14:52:57;10.63;;;5.07;;
70233;SDS011;57622;42.630;23.378;2022-08-19T14:55:28;13.43;;;5.78;;
70233;SDS011;57622;42.630;23.378;2022-08-19T14:57:54;13.77;;;4.90;;
70233;SDS011;57622;42.630;23.378;2022-08-19T15:00:19;9.02;;;5.18;;
70233;SDS011;57622;42.630;23.378;2022-08-19T15:02:45;10.40;;;5.05;;
70233;SDS011;57622;42.630;23.378;2022-08-19T15:05:10;14.02;;;4.95;;